Time;durP1;ratioP1;P1;durP2;ratioP2;P2;SDS_P1;SDS_P2;PMS_P1;PMS_P2;Temp;Humidity;BMP_temperature;BMP_pressure;BME280_temperature;BME280_humidity;BME280_pressure;Samples;Min_cycle;Max_cycle;Signal;HPM_P1;HPM_P2
2022/06/03 00:02:59;;;;;;;4.70;3.30;;;15.40;64.40;;;17.94;50.22;102182.16;5050956;28;20254;-58
2022/06/03 00:05:57;;;;;;;5.10;3.70;;;15.40;64.30;;;17.93;49.79;102180.47;5044546;28;20235;-60
2022/06/03 00:09:10;;;;;;;4.43;3.50;;;15.40;64.30;;;17.95;50.13;102169.63;4863632;29;20220;-59
2022/06/03 00:12:21;;;;;;;3.47;3.13;;;15.30;64.40;;;17.91;50.30;102166.53;4748175;30;20251;-59
2022/06/03 00:14:50;;;;;;;3.10;2.80;;;15.30;64.80;;;17.98;50.08;102166.59;4459870;31;20255;-57
2022/06/03 00:20:13;;;;;;;5.60;3.90;;;15.30;64.70;;;17.97;49.88;102175.63;5161927;27;21145;-58
2022/06/03 00:23:07;;;;;;;7.60;3.93;;;15.30;65.30;;;17.91;49.88;102169.19;5130957;27;20198;-59
2022/06/03 00:25:59;;;;;;;4.53;3.40;;;15.30;64.40;;;17.90;50.11;102180.84;5097807;28;20220;-58
2022/06/03 00:28:56;;;;;;;8.70;3.20;;;15.30;64.70;;;17.87;50.25;102169.75;5066169;28;20246;-58
2022/06/03 00:31:59;;;;;;;5.07;3.50;;;15.30;64.80;;;17.86;50.02;102173.41;4988174;28;20219;-59
2022/06/03 00:34:59;;;;;;;4.77;3.00;;;15.20;64.50;;;17.80;50.44;102174.19;4916894;29;20220;-57
2022/06/03 00:39:00;;;;;;;5.97;3.67;;;15.20;64.80;;;17.69;50.76;102177.28;4763976;29;20210;-59
2022/06/03 00:41:29;;;;;;;5.13;3.73;;;15.20;64.90;;;17.73;50.52;102175.94;4449438;31;20229;-61
2022/06/03 00:46:52;;;;;;;6.00;3.63;;;15.20;64.90;;;17.74;50.50;102174.91;5152377;27;20933;-61
2022/06/03 00:49:49;;;;;;;6.47;3.47;;;15.10;65.10;;;17.72;50.63;102166.28;5082233;28;20233;-61
2022/06/03 00:52:47;;;;;;;7.77;3.77;;;15.10;65.10;;;17.71;50.45;102169.97;5075083;28;20205;-59
2022/06/03 00:56:21;;;;;;;3.83;3.37;;;15.10;65.10;;;17.65;50.60;102176.03;5037517;28;20217;-58
2022/06/03 00:59:08;;;;;;;7.70;4.00;;;15.10;65.30;;;17.65;50.69;102181.34;4831097;29;20208;-58
2022/06/03 01:01:52;;;;;;;7.00;3.70;;;15.10;65.20;;;17.64;50.38;102169.06;4646331;30;20220;-60
2022/06/03 01:08:50;;;;;;;5.67;3.33;;;15.00;65.10;;;17.51;50.80;102175.88;5168060;27;20537;-60
2022/06/03 01:11:35;;;;;;;5.73;3.60;;;15.00;65.50;;;17.53;50.77;102168.50;5115279;28;20206;-59
2022/06/03 01:14:25;;;;;;;5.30;3.97;;;15.00;65.40;;;17.51;50.65;102159.88;5079446;28;20201;-60
2022/06/03 01:17:06;;;;;;;4.97;3.93;;;14.90;65.50;;;17.51;50.73;102175.88;5035515;28;20212;-59
2022/06/03 01:20:09;;;;;;;4.47;3.53;;;14.90;65.40;;;17.47;50.68;102163.06;4933828;28;20667;-60
2022/06/03 01:23:26;;;;;;;5.43;3.90;;;14.90;65.70;;;17.45;50.83;102165.06;4826720;29;20566;-60
2022/06/03 01:27:48;;;;;;;5.47;4.07;;;14.90;65.70;;;17.43;51.11;102159.13;4665877;30;20237;-58
2022/06/03 01:33:50;;;;;;;4.47;3.67;;;14.90;65.70;;;17.31;51.61;102158.75;5161768;27;20396;-60
2022/06/03 01:36:54;;;;;;;5.03;3.80;;;14.80;66.10;;;17.37;51.30;102162.53;5047157;28;20228;-58
2022/06/03 01:39:51;;;;;;;5.97;4.23;;;14.90;66.00;;;17.37;51.25;102166.00;5100277;28;20211;-59
2022/06/03 01:43:13;;;;;;;4.80;4.37;;;14.80;65.70;;;17.32;51.29;102160.41;5023134;28;20203;-60
2022/06/03 01:46:31;;;;;;;5.90;4.20;;;14.80;65.80;;;17.24;51.13;102160.50;4868217;29;20233;-60
2022/06/03 01:54:11;;;;;;;4.60;4.13;;;14.70;66.00;;;17.14;51.44;102151.94;5172348;27;20899;-58
2022/06/03 01:57:02;;;;;;;8.13;4.73;;;14.70;66.10;;;17.17;51.23;102156.91;5074293;28;20232;-59
2022/06/03 02:00:12;;;;;;;5.50;4.10;;;14.60;66.00;;;17.18;51.49;102147.09;5068360;28;20197;-57
2022/06/03 02:03:16;;;;;;;5.30;4.17;;;14.70;66.40;;;17.18;51.15;102142.59;4977777;28;20223;-57
2022/06/03 02:06:34;;;;;;;6.37;5.03;;;14.70;66.10;;;17.14;51.41;102141.31;4820504;29;20230;-57
2022/06/03 02:09:51;;;;;;;10.97;5.30;;;14.60;66.20;;;17.11;51.25;102135.53;4603311;30;20235;-59
2022/06/03 02:13:58;;;;;;;5.73;4.53;;;14.60;66.60;;;17.08;51.56;102142.03;4341281;32;20314;-59
2022/06/03 02:19:36;;;;;;;7.43;4.70;;;14.60;66.80;;;17.07;51.62;102142.25;5171496;27;20388;-60
2022/06/03 02:22:54;;;;;;;9.20;5.40;;;14.50;66.50;;;17.04;51.91;102140.78;5059017;28;20569;-59
2022/06/03 02:26:30;;;;;;;5.40;4.60;;;14.50;66.50;;;16.97;51.83;102137.19;5059828;28;20685;-59
2022/06/03 02:33:18;;;;;;;7.63;4.80;;;14.40;66.40;;;16.87;51.81;102136.63;4789576;29;20602;-60
2022/06/03 02:39:17;;;;;;;5.63;5.00;;;14.40;66.70;;;16.91;51.87;102140.56;5174484;27;20641;-59
2022/06/03 02:42:22;;;;;;;8.17;6.10;;;14.30;67.10;;;16.89;51.93;102138.09;5104750;28;20188;-60
2022/06/03 02:45:22;;;;;;;5.60;4.87;;;14.30;67.10;;;16.87;52.04;102139.28;5016609;28;20222;-59
2022/06/03 02:48:50;;;;;;;8.37;5.70;;;14.30;67.40;;;16.84;51.87;102139.63;4950034;28;20705;-59
2022/06/03 02:51:41;;;;;;;7.40;6.13;;;14.30;67.10;;;16.83;51.85;102148.59;4767279;29;20230;-61
2022/06/03 02:55:00;;;;;;;12.87;11.53;;;14.20;66.70;;;16.72;52.34;102141.91;4636741;30;20326;-59
2022/06/03 03:00:24;;;;;;;8.20;6.73;;;14.20;67.40;;;16.74;52.33;102157.66;5169854;27;20667;-60
2022/06/03 03:03:30;;;;;;;8.87;6.30;;;14.20;67.40;;;16.68;52.36;102161.88;5122820;28;20207;-62
2022/06/03 03:06:50;;;;;;;8.10;5.37;;;14.10;67.40;;;16.66;52.54;102157.75;5097944;28;20491;-60
2022/06/03 03:09:48;;;;;;;6.20;5.27;;;14.10;67.60;;;16.66;52.49;102168.38;4990409;28;20219;-61
2022/06/03 03:13:02;;;;;;;6.80;6.10;;;14.10;67.20;;;16.62;52.55;102159.09;4780809;29;20276;-61
2022/06/03 03:16:08;;;;;;;7.23;5.83;;;14.10;67.60;;;16.60;52.80;102155.78;4594681;31;20267;-59
2022/06/03 03:18:37;;;;;;;7.90;6.30;;;14.10;67.80;;;16.65;52.49;102156.09;4347254;32;20698;-60
2022/06/03 03:21:15;;;;;;;6.73;5.73;;;14.10;67.70;;;16.64;52.17;102154.44;4213812;33;20247;-62
2022/06/03 03:26:32;;;;;;;6.70;6.00;;;14.10;67.70;;;16.64;52.40;102154.44;5147645;27;20644;-59
2022/06/03 03:29:24;;;;;;;8.70;6.90;;;14.00;67.90;;;16.62;52.47;102156.44;5099360;28;20283;-59
2022/06/03 03:32:10;;;;;;;8.43;6.10;;;14.00;67.90;;;16.62;52.73;102161.75;5051552;28;20201;-60
2022/06/03 03:35:22;;;;;;;6.50;5.90;;;14.00;67.90;;;16.58;52.64;102157.81;4973785;28;20223;-61
2022/06/03 03:38:45;;;;;;;7.33;6.40;;;14.00;68.00;;;16.54;52.79;102156.53;4892188;29;20533;-59
2022/06/03 03:41:59;;;;;;;8.80;6.43;;;14.00;68.30;;;16.56;52.86;102159.81;4706131;30;20223;-59
2022/06/03 03:44:34;;;;;;;9.27;6.43;;;14.00;68.60;;;16.63;52.91;102160.75;4534594;31;20241;-58
2022/06/03 03:50:59;;;;;;;8.60;6.30;;;14.00;68.60;;;16.62;52.97;102151.94;5166811;27;20638;-61
2022/06/03 03:54:10;;;;;;;8.63;6.60;;;14.10;68.50;;;16.68;52.63;102150.41;5025714;28;20196;-61
2022/06/03 03:57:32;;;;;;;7.70;6.87;;;14.10;68.20;;;16.70;52.99;102149.22;5084685;28;20221;-62
2022/06/03 04:00:38;;;;;;;9.17;6.50;;;14.20;68.20;;;16.71;52.56;102156.19;4907264;28;20654;-62
2022/06/03 04:03:56;;;;;;;8.83;6.83;;;14.20;68.00;;;16.70;52.40;102153.72;4810721;29;20317;-61
2022/06/03 04:07:16;;;;;;;8.27;6.67;;;14.20;68.20;;;16.71;52.55;102152.72;4658854;30;20286;-60
2022/06/03 04:10:03;;;;;;;8.70;6.50;;;14.20;68.70;;;16.74;52.46;102162.97;4439941;32;20242;-58
2022/06/03 04:16:21;;;;;;;13.03;7.53;;;14.20;68.10;;;16.75;52.45;102156.66;5176064;27;21055;-59
2022/06/03 04:19:44;;;;;;;7.27;6.57;;;14.10;68.30;;;16.78;52.51;102151.00;5004887;28;20221;-59
2022/06/03 04:23:08;;;;;;;10.47;7.10;;;14.10;68.40;;;16.80;52.65;102159.63;5015793;28;20221;-64
2022/06/03 04:26:30;;;;;;;8.90;7.40;;;14.20;68.60;;;16.82;52.74;102154.94;4892665;29;20309;-61
2022/06/03 04:29:38;;;;;;;9.90;7.47;;;14.20;68.60;;;16.86;52.70;102153.56;4754278;30;20572;-61
2022/06/03 04:36:48;;;;;;;11.60;7.37;;;14.20;68.50;;;16.89;52.69;102159.38;5160439;27;20550;-61
2022/06/03 04:40:19;;;;;;;10.87;6.90;;;14.30;68.80;;;16.97;52.85;102160.28;5052376;28;20828;-60
2022/06/03 04:43:54;;;;;;;12.10;7.50;;;14.40;68.80;;;17.02;52.85;102152.59;4979119;28;20216;-60
2022/06/03 04:47:11;;;;;;;9.60;7.37;;;14.40;68.70;;;17.07;52.73;102155.53;4829087;29;20260;-60
2022/06/03 04:50:49;;;;;;;12.20;10.87;;;14.50;68.70;;;17.15;52.49;102153.63;4730890;30;20617;-60
2022/06/03 04:58:05;;;;;;;6.60;5.90;;;14.60;68.50;;;17.33;52.29;102146.06;5171475;27;20629;-60
2022/06/03 05:01:19;;;;;;;9.00;6.67;;;14.70;68.30;;;17.41;52.10;102147.81;5074049;28;20214;-60
2022/06/03 05:04:46;;;;;;;9.13;6.67;;;14.80;68.10;;;17.45;52.12;102149.94;5080752;28;20207;-59
2022/06/03 05:08:24;;;;;;;7.37;5.97;;;14.90;68.10;;;17.49;51.98;102145.91;4925769;29;20217;-60
2022/06/03 05:11:59;;;;;;;8.17;6.30;;;14.90;67.90;;;17.56;52.15;102141.53;4778621;29;20217;-59
2022/06/03 05:15:27;;;;;;;7.40;5.53;;;15.00;67.90;;;17.63;51.88;102141.59;4539417;31;20269;-56
2022/06/03 05:17:59;;;;;;;10.10;6.30;;;15.00;67.70;;;17.72;51.69;102139.66;4371906;32;20737;-61
2022/06/03 05:24:07;;;;;;;8.20;5.80;;;15.10;67.70;;;17.79;51.78;102146.72;5171680;27;20629;-59
2022/06/03 05:27:37;;;;;;;6.27;5.53;;;15.10;67.70;;;17.80;51.48;102129.72;5058343;28;20238;-60
2022/06/03 05:30:38;;;;;;;7.50;5.27;;;15.20;67.50;;;17.89;51.42;102130.44;5015245;28;20296;-59
2022/06/03 05:33:31;;;;;;;7.50;5.40;;;15.20;67.50;;;17.96;51.32;102132.16;4961315;28;20209;-61
2022/06/03 05:36:43;;;;;;;7.13;5.07;;;15.30;67.60;;;17.98;51.70;102127.47;4873815;29;20222;-60
2022/06/03 05:40:02;;;;;;;10.37;5.50;;;15.30;67.50;;;18.00;51.59;102124.59;4711799;30;20239;-60
2022/06/03 05:46:13;;;;;;;6.47;4.80;;;15.40;67.20;;;18.06;51.44;102131.84;5158775;27;20643;-59
2022/06/03 05:49:06;;;;;;;10.60;5.07;;;15.50;67.20;;;18.16;51.19;102132.38;5099352;28;20213;-60
2022/06/03 05:52:28;;;;;;;6.43;5.10;;;15.50;67.20;;;18.24;51.24;102135.72;5082681;28;20212;-60
2022/06/03 05:55:22;;;;;;;9.50;6.00;;;15.60;67.30;;;18.34;50.82;102143.41;5017945;28;20219;-59
2022/06/03 05:58:09;;;;;;;6.53;5.57;;;15.60;66.90;;;18.40;50.95;102134.63;4899397;29;20203;-60
2022/06/03 06:00:58;;;;;;;6.37;4.63;;;15.70;66.70;;;18.52;50.40;102133.13;4766575;29;20672;-60
2022/06/03 06:03:27;;;;;;;7.23;4.20;;;15.80;66.60;;;18.67;50.30;102128.56;4725384;29;20594;-60
2022/06/03 06:05:53;;;;;;;6.30;5.00;;;15.90;66.60;;;18.78;50.16;102128.00;4471563;31;20248;-59
2022/06/03 06:11:06;;;;;;;6.30;4.17;;;16.00;66.30;;;19.03;49.58;102130.22;5161449;27;20635;-60
2022/06/03 06:14:10;;;;;;;7.53;5.03;;;16.10;65.80;;;19.12;49.01;102134.41;5132414;27;20646;-61
2022/06/03 06:16:41;;;;;;;6.93;4.53;;;16.30;65.50;;;19.28;48.88;102134.91;5104707;28;20552;-61
2022/06/03 06:19:21;;;;;;;26.37;22.17;;;16.40;65.00;;;19.38;48.49;102134.56;5082665;28;20193;-59
2022/06/03 06:22:09;;;;;;;7.20;5.97;;;16.40;64.50;;;19.42;48.03;102138.53;5011963;28;20374;-61
2022/06/03 06:25:03;;;;;;;11.27;9.03;;;16.60;63.90;;;19.43;48.35;102132.13;4933858;28;20228;-60
2022/06/03 06:31:24;;;;;;;9.43;8.13;;;16.70;63.40;;;19.58;47.87;102119.47;5163112;27;20921;-60
2022/06/03 06:34:38;;;;;;;7.73;7.00;;;16.80;63.40;;;19.68;47.98;102119.94;5115042;28;20222;-59
2022/06/03 06:37:53;;;;;;;9.80;6.83;;;16.80;63.20;;;19.78;47.50;102115.00;5054257;28;20297;-61
2022/06/03 06:40:41;;;;;;;12.13;10.10;;;16.90;63.00;;;19.92;47.15;102111.34;4927900;29;20281;-60
2022/06/03 06:43:30;;;;;;;9.83;5.93;;;17.10;62.60;;;20.03;47.07;102112.63;4786776;29;20217;-60
2022/06/03 06:46:08;;;;;;;8.33;4.63;;;17.10;61.90;;;20.11;46.22;102117.78;4652523;30;20316;-59
2022/06/03 06:48:34;;;;;;;8.33;5.33;;;17.20;61.50;;;20.18;45.90;102110.59;4594114;30;20277;-58
2022/06/03 06:53:48;;;;;;;5.53;4.17;;;17.30;60.40;;;20.25;45.10;102112.25;5172012;27;20637;-60
2022/06/03 06:56:29;;;;;;;5.77;4.63;;;17.40;59.70;;;20.30;44.89;102113.53;5133164;27;20219;-62
2022/06/03 06:59:04;;;;;;;7.97;5.20;;;17.50;59.10;;;20.34;44.99;102115.56;5117205;27;20194;-60
2022/06/03 07:01:39;;;;;;;8.47;4.67;;;17.60;59.20;;;20.40;45.00;102114.75;5110813;28;20289;-58
2022/06/03 07:04:14;;;;;;;5.63;4.87;;;17.60;59.30;;;20.49;45.06;102112.72;5099319;28;20951;-60
2022/06/03 07:06:43;;;;;;;7.10;3.97;;;17.70;59.10;;;20.57;44.69;102120.50;5033626;28;20642;-60
2022/06/03 07:09:46;;;;;;;7.40;4.30;;;17.80;58.50;;;20.57;43.75;102116.00;4895739;29;20212;-60
2022/06/03 07:12:12;;;;;;;6.03;3.67;;;17.80;58.10;;;20.67;44.00;102120.91;4642687;30;20314;-61
2022/06/03 07:20:30;;;;;;;6.23;3.30;;;18.10;56.90;;;20.92;43.50;102114.72;5074217;28;20550;-59
2022/06/03 07:23:11;;;;;;;6.17;4.60;;;18.20;57.20;;;21.06;43.21;102120.88;5076769;28;20199;-60
2022/06/03 07:25:46;;;;;;;4.77;3.97;;;18.30;57.50;;;21.13;42.97;102108.34;5096399;28;20235;-61
2022/06/03 07:28:29;;;;;;;2.60;2.40;;;18.40;57.00;;;21.22;42.92;102109.75;5043745;28;20204;-61
2022/06/03 07:31:10;;;;;;;3.83;2.80;;;18.50;56.60;;;21.35;42.29;102108.84;4991019;28;20222;-59
2022/06/03 07:33:53;;;;;;;4.23;3.40;;;18.60;56.30;;;21.49;42.53;102105.91;4846389;29;20203;-60
2022/06/03 07:36:21;;;;;;;4.17;3.20;;;18.70;56.20;;;21.64;41.90;102102.13;4564103;31;20246;-66
2022/06/03 07:41:33;;;;;;;3.53;3.10;;;18.80;56.20;;;21.81;41.90;102093.41;5171130;27;20633;-60
2022/06/03 07:44:16;;;;;;;3.90;3.37;;;19.00;55.50;;;21.88;41.31;102078.13;5110997;28;20187;-60
2022/06/03 07:46:52;;;;;;;4.00;3.13;;;19.10;55.20;;;21.97;40.71;102082.19;5097327;28;20187;-59
2022/06/03 07:49:22;;;;;;;11.87;7.67;;;19.20;54.30;;;22.05;40.58;102086.47;5056318;28;20214;-59
2022/06/03 07:51:57;;;;;;;4.53;3.23;;;19.30;54.40;;;22.11;40.72;102083.72;4943383;28;20233;-60
2022/06/03 07:54:29;;;;;;;5.07;4.20;;;19.40;54.10;;;22.22;40.22;102084.91;4801159;29;20235;-59
2022/06/03 07:57:03;;;;;;;3.93;2.93;;;19.50;54.00;;;22.34;40.57;102080.47;4658289;30;20312;-59
2022/06/03 07:59:32;;;;;;;8.53;3.97;;;19.50;53.90;;;22.46;39.44;102084.09;4499178;31;20240;-60
2022/06/03 08:04:38;;;;;;;6.43;3.80;;;19.60;52.70;;;22.62;39.59;102078.19;5168482;27;20662;-60
2022/06/03 08:13:00;;;;;;;10.60;5.77;;;20.10;52.50;;;23.93;38.28;102068.53;5054354;28;20190;-60
2022/06/03 08:15:33;;;;;;;4.63;3.63;;;20.30;52.70;;;25.21;35.85;102071.28;5011161;28;20301;-60
2022/06/03 08:18:05;;;;;;;4.07;3.10;;;20.80;52.00;;;26.77;34.07;102066.78;4943180;28;20558;-60
2022/06/03 08:20:45;;;;;;;2.60;2.20;;;21.50;51.40;;;28.34;31.51;102061.22;4986982;28;20230;-58
2022/06/03 08:23:11;;;;;;;2.63;2.40;;;22.40;48.80;;;29.80;29.70;102063.81;4877302;28;20266;-60
2022/06/03 08:28:21;;;;;;;3.07;2.40;;;23.30;48.50;;;32.62;26.81;102057.09;5139466;27;20636;-61
2022/06/03 08:30:54;;;;;;;4.07;2.50;;;25.30;45.70;;;33.73;24.32;102061.13;5069548;28;20200;-58
2022/06/03 08:33:31;;;;;;;2.27;1.80;;;26.30;40.80;;;34.90;24.26;102063.44;5105542;28;20335;-61
2022/06/03 08:35:59;;;;;;;3.20;2.37;;;27.10;39.70;;;35.80;22.14;102072.34;5093210;28;20219;-61
2022/06/03 08:38:34;;;;;;;6.83;5.20;;;28.00;37.40;;;36.72;20.20;102066.16;5039912;28;20207;-60
2022/06/03 08:41:22;;;;;;;4.40;3.97;;;28.70;34.30;;;37.59;19.40;102068.75;4968693;28;20198;-59
2022/06/03 08:44:18;;;;;;;5.10;2.83;;;29.50;33.10;;;38.26;18.62;102068.97;4794086;29;20260;-64
2022/06/03 08:46:45;;;;;;;2.67;2.20;;;30.20;30.70;;;38.76;18.40;102082.09;4588479;30;20238;-60
2022/06/03 08:51:54;;;;;;;2.33;2.22;;;30.80;30.50;;;39.75;17.22;102073.78;5170335;27;20684;-60
2022/06/03 08:54:28;;;;;;;2.20;2.00;;;31.70;28.70;;;40.01;17.15;102070.00;5130479;27;20252;-59
2022/06/03 08:57:04;;;;;;;4.28;3.65;;;32.20;28.00;;;40.44;17.25;102067.56;5096420;27;20645;-60
2022/06/03 08:59:39;;;;;;;4.00;3.60;;;32.70;27.90;;;40.94;15.83;102065.28;5136955;27;20205;-59
2022/06/03 09:02:12;;;;;;;2.33;2.15;;;33.00;26.40;;;41.02;15.77;102067.13;5052538;28;20193;-61
2022/06/03 09:04:50;;;;;;;2.33;1.85;;;33.40;25.60;;;41.27;15.52;102056.00;5001376;28;20242;-60
2022/06/03 09:07:31;;;;;;;2.67;2.42;;;33.60;25.60;;;41.46;14.78;102053.44;5012475;28;20192;-61
2022/06/03 09:09:58;;;;;;;2.20;2.10;;;33.90;24.20;;;41.49;14.98;102058.22;4898112;28;20260;-62
2022/06/03 09:15:10;;;;;;;3.40;2.20;;;34.40;25.10;;;42.26;14.84;102060.41;5208901;27;20628;-60
2022/06/03 09:17:45;;;;;;;2.63;1.95;;;34.70;24.20;;;42.59;14.68;102057.28;5150157;27;20603;-60
2022/06/03 09:20:19;;;;;;;2.30;2.10;;;34.90;24.00;;;42.71;13.58;102064.69;5147554;27;20350;-60
2022/06/03 09:22:50;;;;;;;1.83;1.67;;;35.10;22.30;;;42.65;13.42;102055.03;5121606;27;20202;-59
2022/06/03 09:25:19;;;;;;;2.53;2.22;;;35.20;21.90;;;42.94;13.46;102046.22;5072185;28;20209;-60
2022/06/03 09:27:49;;;;;;;4.03;3.55;;;35.30;22.40;;;43.08;12.73;102052.06;5009986;28;20203;-60
2022/06/03 09:30:28;;;;;;;5.88;3.63;;;35.30;21.30;;;43.40;13.31;102045.25;4875264;29;20257;-60
2022/06/03 09:32:54;;;;;;;2.35;1.83;;;35.40;21.90;;;43.50;12.13;102041.91;4622016;30;20701;-60
2022/06/03 09:38:02;;;;;;;3.50;3.20;;;35.30;20.80;;;43.21;12.82;102045.22;5168282;27;20955;-58
2022/06/03 09:40:33;;;;;;;2.25;2.15;;;35.40;21.60;;;42.81;12.50;102034.44;5105588;28;20279;-60
2022/06/03 09:43:20;;;;;;;2.50;2.15;;;35.40;20.80;;;42.37;12.81;102039.31;5091092;27;20191;-60
2022/06/03 09:45:52;;;;;;;3.25;3.03;;;35.50;21.00;;;42.03;13.64;102037.25;5114749;27;20216;-58
2022/06/03 09:48:25;;;;;;;2.00;1.90;;;35.30;21.20;;;42.09;13.23;102029.44;5069986;28;20562;-60
2022/06/03 09:50:55;;;;;;;4.63;4.22;;;35.20;21.10;;;42.42;13.04;102025.19;5027315;28;20266;-61
2022/06/03 09:53:30;;;;;;;2.33;2.05;;;35.10;21.20;;;41.95;13.45;102027.13;5038589;28;20577;-60
2022/06/03 09:59:52;;;;;;;6.10;5.60;;;35.00;21.30;;;41.59;14.10;102008.75;5166915;27;20951;-60
2022/06/03 10:02:19;;;;;;;2.35;2.15;;;35.00;21.30;;;41.07;13.71;102008.00;5112277;27;20274;-59
2022/06/03 10:04:46;;;;;;;3.58;2.92;;;34.80;20.70;;;41.36;13.24;102015.19;5128416;27;20273;-59
2022/06/03 10:07:13;;;;;;;4.00;2.20;;;34.70;21.50;;;41.27;13.56;102011.75;5096629;28;20188;-60
2022/06/03 10:12:49;;;;;;;10.65;9.38;;;34.70;21.70;;;42.33;13.08;102010.72;4931586;29;20295;-58
2022/06/03 10:18:09;;;;;;;2.83;2.28;;;34.80;21.50;;;40.31;13.86;102002.41;4539745;31;20246;-60
2022/06/03 10:23:14;;;;;;;2.00;1.80;;;34.50;21.00;;;40.13;14.47;101999.06;5141322;27;20555;-58
2022/06/03 10:26:02;;;;;;;2.45;2.25;;;34.00;22.30;;;40.82;13.91;101995.38;5104272;28;20651;-60
2022/06/03 10:28:34;;;;;;;2.15;2.05;;;33.90;22.30;;;41.58;13.75;101989.75;5092101;28;20196;-61
2022/06/03 10:31:06;;;;;;;2.67;2.22;;;34.10;22.50;;;42.08;13.25;101995.41;5032120;28;20220;-59
2022/06/03 10:33:33;;;;;;;2.10;2.00;;;34.20;22.00;;;42.62;13.01;101992.00;4966303;28;20205;-60
2022/06/03 10:36:03;;;;;;;5.45;5.05;;;34.50;21.90;;;43.05;12.64;101983.47;4934195;28;20547;-57
2022/06/03 10:38:34;;;;;;;2.28;2.08;;;34.90;21.90;;;43.35;11.96;101976.19;4842581;29;20268;-61
2022/06/03 10:41:00;;;;;;;2.17;1.92;;;35.10;20.90;;;42.98;12.53;101973.03;4665143;30;20234;-59
2022/06/03 10:43:26;;;;;;;2.85;2.00;;;35.30;21.10;;;43.39;12.59;101974.28;4479654;31;20572;-60
2022/06/03 10:46:13;;;;;;;2.97;2.30;;;35.50;21.40;;;43.67;11.91;101974.00;5121687;27;20540;-61
2022/06/03 10:48:40;;;;;;;5.68;3.85;;;35.70;21.00;;;43.44;12.61;101979.53;5028569;28;20238;-59
2022/06/03 10:51:18;;;;;;;2.90;2.25;;;35.90;20.90;;;43.00;12.47;101978.22;5051107;28;20208;-59
2022/06/03 11:02:34;;;;;;;3.55;2.35;;;35.30;20.80;;;39.26;14.95;101969.94;4623552;30;20301;-60
2022/06/03 11:05:06;;;;;;;3.47;2.28;;;34.70;21.10;;;38.60;15.35;101972.50;4481134;31;20322;-59
2022/06/03 11:10:15;;;;;;;3.80;3.50;;;34.20;21.40;;;36.69;15.98;101967.94;5138754;27;20559;-60
2022/06/03 11:13:08;;;;;;;2.22;2.05;;;33.30;21.90;;;35.77;17.38;101963.34;5081817;28;20199;-61
2022/06/03 11:15:37;;;;;;;2.20;2.00;;;32.70;22.80;;;35.07;18.19;101959.56;5080246;28;20240;-60
2022/06/03 11:18:17;;;;;;;2.00;1.67;;;32.20;23.30;;;34.28;18.67;101964.47;5022163;28;20674;-60
2022/06/03 11:20:50;;;;;;;2.40;2.20;;;31.60;24.00;;;33.74;19.66;101964.34;4920144;28;20241;-60
2022/06/03 11:23:19;;;;;;;3.40;2.30;;;31.10;24.70;;;33.27;19.88;101966.19;4884213;29;20226;-59
2022/06/03 11:25:50;;;;;;;2.80;1.90;;;30.60;25.20;;;32.87;20.36;101953.09;4810013;29;20952;-60
2022/06/03 11:28:17;;;;;;;3.40;2.30;;;30.30;25.60;;;32.58;20.74;101953.22;4684313;30;20322;-62
2022/06/03 11:33:28;;;;;;;2.27;2.07;;;29.90;25.80;;;32.06;21.92;101945.88;5131626;27;20551;-59
2022/06/03 11:36:00;;;;;;;2.87;2.13;;;29.30;26.80;;;31.74;22.07;101934.72;5093842;28;20230;-60
2022/06/03 11:38:36;;;;;;;4.93;2.10;;;29.10;27.10;;;31.40;22.18;101936.63;5070308;28;21630;-61
2022/06/03 11:41:10;;;;;;;1.90;1.80;;;28.80;27.40;;;31.10;22.26;101929.47;5042467;28;20555;-60
2022/06/03 11:43:47;;;;;;;2.20;2.00;;;28.60;27.70;;;30.86;23.30;101927.72;4943641;28;20537;-60
2022/06/03 11:46:36;;;;;;;5.13;3.83;;;28.40;28.30;;;30.66;23.46;101926.72;4861357;29;21210;-61
2022/06/03 11:49:06;;;;;;;2.83;2.63;;;28.20;28.50;;;30.59;23.49;101928.94;4784579;29;20244;-61
2022/06/03 11:51:32;;;;;;;2.60;2.10;;;28.00;28.70;;;30.52;23.26;101922.16;4717496;30;20330;-60
2022/06/03 11:56:38;;;;;;;4.53;2.77;;;27.90;28.80;;;30.63;23.27;101910.97;5174760;27;20545;-60
2022/06/03 11:59:13;;;;;;;2.73;1.83;;;27.70;29.20;;;30.58;23.04;101915.59;5158710;27;20281;-58
2022/06/03 12:01:56;;;;;;;14.77;13.53;;;27.70;29.10;;;30.46;23.27;101904.22;5152899;27;20235;-64
2022/06/03 12:04:47;;;;;;;7.47;6.77;;;27.70;28.90;;;30.29;23.75;101893.66;5120845;27;20352;-62
2022/06/03 12:07:34;;;;;;;5.17;2.83;;;27.70;28.90;;;30.15;23.48;101896.16;5011602;28;20207;-63
2022/06/03 12:10:13;;;;;;;4.57;3.50;;;27.60;29.30;;;30.06;24.15;101891.56;4910668;28;20199;-61
2022/06/03 12:13:17;;;;;;;3.33;3.03;;;27.50;29.30;;;29.91;23.56;101884.28;4719785;29;20270;-60
2022/06/03 12:16:05;;;;;;;3.13;2.17;;;27.40;29.00;;;30.06;24.24;101878.00;4442490;31;20244;-61
2022/06/03 12:20:55;;;;;;;4.63;2.70;;;27.40;29.50;;;30.30;24.09;101873.56;5181823;27;20873;-60
2022/06/03 12:23:52;;;;;;;2.20;2.00;;;27.40;29.70;;;30.32;23.66;101865.94;5137861;27;20229;-61
2022/06/03 12:26:24;;;;;;;1.50;1.40;;;27.40;29.50;;;30.46;23.30;101858.84;5099865;28;20344;-63
2022/06/03 12:29:22;;;;;;;2.00;1.90;;;27.40;29.60;;;30.45;23.45;101859.91;5081288;28;20613;-61
2022/06/03 12:31:49;;;;;;;2.30;2.10;;;27.50;29.70;;;30.38;23.55;101864.84;4968596;28;20214;-61
2022/06/03 12:34:24;;;;;;;2.87;2.47;;;27.50;29.60;;;30.24;23.84;101863.78;4907683;28;20215;-61
2022/06/03 12:40:00;;;;;;;2.13;1.90;;;27.40;29.60;;;30.10;24.04;101855.41;5140626;27;20543;-61
2022/06/03 12:42:40;;;;;;;8.90;7.13;;;27.40;29.90;;;30.20;24.13;101853.75;5085329;28;20671;-58
2022/06/03 12:45:33;;;;;;;2.70;1.97;;;27.40;30.00;;;30.19;24.35;101855.66;5110687;28;20511;-59
2022/06/03 12:48:01;;;;;;;2.63;2.43;;;27.50;30.00;;;30.16;24.38;101856.22;5070403;28;20546;-58
2022/06/03 12:51:01;;;;;;;2.27;1.67;;;27.40;29.90;;;30.09;24.23;101847.56;4961627;28;20658;-59
2022/06/03 12:53:38;;;;;;;3.43;2.00;;;27.40;29.80;;;30.06;24.26;101848.94;4822428;29;20284;-58
2022/06/03 12:56:36;;;;;;;2.73;2.03;;;27.30;30.10;;;30.04;24.73;101853.00;4784854;29;20221;-63
2022/06/03 12:59:42;;;;;;;2.40;2.20;;;27.30;30.20;;;30.20;24.32;101840.16;5169077;27;20634;-61
2022/06/03 13:02:16;;;;;;;2.30;2.10;;;27.40;30.00;;;30.28;24.14;101845.84;5119922;28;20195;-65
2022/06/03 13:05:38;;;;;;;4.53;2.10;;;27.50;29.90;;;30.17;23.51;101836.91;5104277;28;20284;-62
2022/06/03 13:08:10;;;;;;;2.07;1.97;;;27.60;29.50;;;30.28;22.91;101836.88;5054398;28;20197;-56
2022/06/03 13:11:00;;;;;;;2.20;2.00;;;27.60;28.80;;;30.26;23.16;101836.34;5048921;28;20210;-61
2022/06/03 13:14:14;;;;;;;1.80;1.70;;;27.60;28.70;;;30.23;24.14;101839.63;4946650;28;20230;-58
2022/06/03 13:19:55;;;;;;;3.90;1.80;;;27.70;29.30;;;30.20;24.24;101841.00;5169578;27;20613;-60
2022/06/03 13:22:55;;;;;;;2.03;1.73;;;27.60;29.50;;;30.13;24.21;101840.47;5130922;27;20232;-60
2022/06/03 13:25:33;;;;;;;3.10;2.13;;;27.60;29.70;;;30.15;23.86;101841.00;5117648;28;20215;-58
2022/06/03 13:28:36;;;;;;;6.17;5.67;;;27.60;29.40;;;30.07;23.84;101833.44;5110628;28;20282;-60
2022/06/03 13:31:19;;;;;;;2.87;1.93;;;27.60;29.50;;;30.41;23.47;101831.69;4979170;28;20217;-58
2022/06/03 13:34:27;;;;;;;1.93;1.83;;;27.60;29.60;;;31.14;22.98;101829.03;4821946;29;20202;-61
2022/06/03 13:38:40;;;;;;;2.10;1.70;;;27.70;29.80;;;32.65;21.97;101830.09;4605141;31;20244;-60
2022/06/03 13:44:04;;;;;;;2.97;2.07;;;27.90;30.00;;;32.09;21.74;101836.25;5213014;27;20639;-57
2022/06/03 13:46:34;;;;;;;3.10;2.10;;;28.30;29.00;;;31.82;22.03;101835.19;5148763;27;20539;-57
2022/06/03 13:49:12;;;;;;;3.17;2.00;;;28.30;29.00;;;31.45;22.19;101838.59;5143734;27;20200;-60
2022/06/03 13:51:57;;;;;;;14.27;12.87;;;28.30;28.60;;;30.98;22.52;101846.56;5161695;27;20195;-58
2022/06/03 13:54:34;;;;;;;2.50;1.90;;;28.30;28.50;;;30.69;23.04;101832.88;5102052;28;20192;-59
2022/06/03 13:57:17;;;;;;;3.57;1.87;;;28.10;28.60;;;30.29;23.56;101825.72;5032720;28;20234;-57